Create Tblcommutelog Verified Points Advance Search
| # | Trip ID | Id Commuter | Trip Date | Trip Num | Current Lat | Current Lng | Delta Distance | Current Time | Activity | Activity Confidence | Current Speed | |
|---|---|---|---|---|---|---|---|---|---|---|---|---|
| 73781 | 250417_777589_16507005_0712 | 777589 | (not set) | (not set) | 38.849122355895 | -77.219846186915 | 7.4956 | 2025-04-17 11:33:34.233 | in_vehicle | 100 | 9.8303933051401 | |
| 73782 | 250417_783237_16429030_0729 | 783237 | (not set) | (not set) | 39.1604285 | -77.2892951 | 0.6196 | 2025-04-17 11:33:36.337 | in_vehicle | 100 | 8.0779994099082 | |
| 73783 | 250417_112747_16513536_0708 | 112747 | (not set) | (not set) | 38.8708214 | -77.0998619 | 10.6276 | 2025-04-17 11:33:37.363 | in_vehicle | 100 | 9.2805350165852 | |
| 73784 | 250417_760012_16429192_0701 | 760012 | (not set) | (not set) | 38.876617431956 | -77.004759284632 | 3.8685 | 2025-04-17 11:33:38.143 | on_foot | 66 | -0.44703925898772 | |
| 73785 | 250417_760012_16429192_0701 | 760012 | (not set) | (not set) | 38.876617039137 | -77.004758920206 | 5.6745 | 2025-04-17 11:33:38.152 | on_foot | 100 | -0.44703925898772 | |
| 73786 | 250417_775339_16505279_0725 | 775339 | (not set) | (not set) | 38.966553458868 | -77.429297032137 | 1.3259 | 2025-04-17 11:33:38.209 | in_vehicle | 100 | 9.1553640240686 | |
| 73787 | 250417_766975_16479173_0715 | 766975 | (not set) | (not set) | 39.000742352638 | -77.092813992931 | 3.9129 | 2025-04-17 11:33:38.352 | on_foot | 100 | -0.44703925898772 | |
| 73788 | 250417_782588_16513676_0701 | 782588 | (not set) | (not set) | 39.193141888521 | -76.694503952114 | 9.4393 | 2025-04-17 11:33:38.734 | still | 100 | -0.44703925898772 | |
| 73789 | 250417_782588_16513676_0701 | 782588 | (not set) | (not set) | 39.19318974682 | -76.694866314149 | 9.6246 | 2025-04-17 11:33:40.698 | still | 100 | -0.44703925898772 | |
| 73790 | 250417_731669_16507744_0656 | 731669 | (not set) | (not set) | 38.754872172566 | -77.456463374187 | 9.5763 | 2025-04-17 11:33:41.181 | in_vehicle | 100 | 6.4328949368334 | |
| 73791 | 250417_774046_16504560_0728 | 774046 | (not set) | (not set) | 39.08438537157 | -77.146502098829 | 2.6602 | 2025-04-17 11:33:41.721 | in_vehicle | 100 | -0.44703925898772 | |
| 73792 | 250417_784104_6438355_0701 | 784104 | (not set) | (not set) | 38.984387394763 | -77.094494333007 | 15.9693 | 2025-04-17 11:33:42.428 | in_vehicle | 100 | -0.44703925898772 | |
| 73793 | 250417_774226_16511083_0719 | 774226 | (not set) | (not set) | 38.885525028841 | -77.01755983724 | 2.8897 | 2025-04-17 11:33:45.374 | in_vehicle | 100 | 3.460083864565 | |
| 73794 | 250417_780266_16484290_0718 | 780266 | (not set) | (not set) | 38.890585 | -76.9377637 | 0.4007 | 2025-04-17 11:33:45.609 | still | 100 | 1.0326606882616 | |
| 73795 | 250417_781336_16450333_0650 | 781336 | (not set) | (not set) | 38.884930843666 | -77.151099955062 | 23.4166 | 2025-04-17 11:33:46.008 | in_vehicle | 100 | -0.44703925898772 | |
| 73796 | 250417_777589_16507005_0712 | 777589 | (not set) | (not set) | 38.851594406694 | -77.219785794742 | 7.6662 | 2025-04-17 11:33:46.213 | in_vehicle | 100 | 10.943521060019 | |
| 73797 | 250417_782405_16511739_0721 | 782405 | (not set) | (not set) | 38.921904437873 | -76.996101988645 | 1.8316 | 2025-04-17 11:33:47.362 | in_vehicle | 100 | 4.3586327751303 | |
| 73798 | 250417_775339_16505279_0725 | 775339 | (not set) | (not set) | 38.964419409791 | -77.428111469548 | 1.4864 | 2025-04-17 11:33:49.261 | in_vehicle | 100 | 10.809409282323 | |
| 73799 | 250417_781336_16450333_0650 | 781336 | (not set) | (not set) | 38.883730307998 | -77.148723064269 | 23.4166 | 2025-04-17 11:33:50.032 | still | 33 | -0.44703925898772 | |
| 73800 | 250417_112747_16513536_0708 | 112747 | (not set) | (not set) | 38.8715424 | -77.0969519 | 10.7922 | 2025-04-17 11:33:51.273 | in_vehicle | 100 | 8.5965649503339 |